Terminal Aerodrome Forecast
Issued by NWS

Home | Current Version | Previous Version | Text Only | Print | Product List | Glossary On
Versions: 1 2 3 4 5 6 7 8 9 10 11 12 13
837
FTUS45 KRIW 210523
TAFLND
TAF
KLND 210523Z 2106/2206 25011KT P6SM SCT090 SCT200 WS015/27040KT
     FM211700 28014G22KT P6SM FEW080 BKN200
     FM220100 25011KT P6SM BKN200 WS010/27045KT=

USA.gov is the U.S. government's official web portal to all federal, state and local government web resources and services.